<?xml version="1.0" encoding="UTF-8" standalone="no" ?>
<gpx xmlns="http://www.topografix.com/GPX/1/1" xmlns:xsi="http://www.w3.org/2001/XMLSchema-instance" xsi:schemaLocation="http://www.topografix.com/GPX/1/1 http://www.topografix.com/GPX/1/1/gpx.xsd" version="1.1" creator="VisuGPX - https://www.visugpx.com">
  <metadata>
    <name>Montée du piton de la fournaise.</name>
    <desc><![CDATA[Montée sous le soleil  chute au retour avec tibia bien éraflé et brulé. ]]></desc>
  </metadata>
  <trk>
    <name><![CDATA[TRK1]]></name>
    <desc><![CDATA[À partir de la Trace Active]]></desc>
    <trkseg>
      <trkpt lat="-21.22533" lon="55.68634">
        <ele>2406.199219</ele>
        <time>2012-04-29T05:12:18Z</time>
      </trkpt>
      <trkpt lat="-21.22521" lon="55.68569">
        <ele>2387.898438</ele>
        <time>2012-04-29T05:12:21Z</time>
      </trkpt>
      <trkpt lat="-21.2251" lon="55.68566">
        <ele>2386.199219</ele>
        <time>2012-04-29T05:12:24Z</time>
      </trkpt>
      <trkpt lat="-21.22497" lon="55.68562">
        <ele>2385.699219</ele>
        <time>2012-04-29T05:12:27Z</time>
      </trkpt>
      <trkpt lat="-21.22489" lon="55.68566">
        <ele>2384.898438</ele>
        <time>2012-04-29T05:12:31Z</time>
      </trkpt>
      <trkpt lat="-21.22481" lon="55.68572">
        <ele>2383.699219</ele>
        <time>2012-04-29T05:12:34Z</time>
      </trkpt>
      <trkpt lat="-21.22475" lon="55.6858">
        <ele>2381.699219</ele>
        <time>2012-04-29T05:12:37Z</time>
      </trkpt>
      <trkpt lat="-21.22464" lon="55.68584">
        <ele>2379</ele>
        <time>2012-04-29T05:12:41Z</time>
      </trkpt>
      <trkpt lat="-21.22454" lon="55.68588">
        <ele>2376.796875</ele>
        <time>2012-04-29T05:12:45Z</time>
      </trkpt>
      <trkpt lat="-21.22445" lon="55.68592">
        <ele>2377</ele>
        <time>2012-04-29T05:12:49Z</time>
      </trkpt>
      <trkpt lat="-21.22437" lon="55.68597">
        <ele>2377.5</ele>
        <time>2012-04-29T05:12:53Z</time>
      </trkpt>
      <trkpt lat="-21.2242" lon="55.68608">
        <ele>2378.199219</ele>
        <time>2012-04-29T05:13:04Z</time>
      </trkpt>
      <trkpt lat="-21.22412" lon="55.68613">
        <ele>2378.699219</ele>
        <time>2012-04-29T05:13:11Z</time>
      </trkpt>
      <trkpt lat="-21.22404" lon="55.68617">
        <ele>2377.699219</ele>
        <time>2012-04-29T05:13:15Z</time>
      </trkpt>
      <trkpt lat="-21.22393" lon="55.68621">
        <ele>2375.597656</ele>
        <time>2012-04-29T05:13:19Z</time>
      </trkpt>
      <trkpt lat="-21.22384" lon="55.68624">
        <ele>2373.898438</ele>
        <time>2012-04-29T05:13:23Z</time>
      </trkpt>
      <trkpt lat="-21.22379" lon="55.68634">
        <ele>2372.398438</ele>
        <time>2012-04-29T05:13:27Z</time>
      </trkpt>
      <trkpt lat="-21.22373" lon="55.68642">
        <ele>2371.796875</ele>
        <time>2012-04-29T05:13:31Z</time>
      </trkpt>
      <trkpt lat="-21.22368" lon="55.68654">
        <ele>2370.796875</ele>
        <time>2012-04-29T05:13:36Z</time>
      </trkpt>
      <trkpt lat="-21.22361" lon="55.68662">
        <ele>2370.199219</ele>
        <time>2012-04-29T05:13:40Z</time>
      </trkpt>
      <trkpt lat="-21.22355" lon="55.6867">
        <ele>2369.699219</ele>
        <time>2012-04-29T05:13:44Z</time>
      </trkpt>
      <trkpt lat="-21.22346" lon="55.68675">
        <ele>2368.796875</ele>
        <time>2012-04-29T05:13:48Z</time>
      </trkpt>
      <trkpt lat="-21.22337" lon="55.68681">
        <ele>2366.597656</ele>
        <time>2012-04-29T05:13:52Z</time>
      </trkpt>
      <trkpt lat="-21.22328" lon="55.68685">
        <ele>2363.199219</ele>
        <time>2012-04-29T05:13:56Z</time>
      </trkpt>
      <trkpt lat="-21.2232" lon="55.68691">
        <ele>2361.5</ele>
        <time>2012-04-29T05:14:01Z</time>
      </trkpt>
      <trkpt lat="-21.22315" lon="55.68699">
        <ele>2359.5</ele>
        <time>2012-04-29T05:14:05Z</time>
      </trkpt>
      <trkpt lat="-21.22308" lon="55.68708">
        <ele>2357.699219</ele>
        <time>2012-04-29T05:14:09Z</time>
      </trkpt>
      <trkpt lat="-21.22298" lon="55.68714">
        <ele>2355.796875</ele>
        <time>2012-04-29T05:14:13Z</time>
      </trkpt>
      <trkpt lat="-21.2229" lon="55.68719">
        <ele>2353.199219</ele>
        <time>2012-04-29T05:14:16Z</time>
      </trkpt>
      <trkpt lat="-21.22283" lon="55.68728">
        <ele>2351.597656</ele>
        <time>2012-04-29T05:14:20Z</time>
      </trkpt>
      <trkpt lat="-21.22278" lon="55.68739">
        <ele>2351</ele>
        <time>2012-04-29T05:14:24Z</time>
      </trkpt>
      <trkpt lat="-21.22269" lon="55.68747">
        <ele>2351.097656</ele>
        <time>2012-04-29T05:14:28Z</time>
      </trkpt>
      <trkpt lat="-21.22263" lon="55.68755">
        <ele>2351.597656</ele>
        <time>2012-04-29T05:14:31Z</time>
      </trkpt>
      <trkpt lat="-21.22261" lon="55.68765">
        <ele>2351.898438</ele>
        <time>2012-04-29T05:14:34Z</time>
      </trkpt>
      <trkpt lat="-21.22256" lon="55.68776">
        <ele>2353.898438</ele>
        <time>2012-04-29T05:14:38Z</time>
      </trkpt>
      <trkpt lat="-21.22253" lon="55.68786">
        <ele>2353.898438</ele>
        <time>2012-04-29T05:14:41Z</time>
      </trkpt>
      <trkpt lat="-21.22251" lon="55.68798">
        <ele>2354.296875</ele>
        <time>2012-04-29T05:14:45Z</time>
      </trkpt>
      <trkpt lat="-21.22249" lon="55.68811">
        <ele>2355.699219</ele>
        <time>2012-04-29T05:14:49Z</time>
      </trkpt>
      <trkpt lat="-21.22251" lon="55.6882">
        <ele>2359.699219</ele>
        <time>2012-04-29T05:14:53Z</time>
      </trkpt>
      <trkpt lat="-21.22249" lon="55.6883">
        <ele>2359.296875</ele>
        <time>2012-04-29T05:14:59Z</time>
      </trkpt>
      <trkpt lat="-21.22245" lon="55.68839">
        <ele>2357.699219</ele>
        <time>2012-04-29T05:15:04Z</time>
      </trkpt>
      <trkpt lat="-21.22236" lon="55.68842">
        <ele>2355.898438</ele>
        <time>2012-04-29T05:15:08Z</time>
      </trkpt>
      <trkpt lat="-21.22228" lon="55.6885">
        <ele>2352</ele>
        <time>2012-04-29T05:15:13Z</time>
      </trkpt>
      <trkpt lat="-21.22221" lon="55.68856">
        <ele>2351.898438</ele>
        <time>2012-04-29T05:15:20Z</time>
      </trkpt>
      <trkpt lat="-21.22225" lon="55.68866">
        <ele>2353.296875</ele>
        <time>2012-04-29T05:15:24Z</time>
      </trkpt>
      <trkpt lat="-21.22227" lon="55.68878">
        <ele>2354.699219</ele>
        <time>2012-04-29T05:15:28Z</time>
      </trkpt>
      <trkpt lat="-21.22228" lon="55.6889">
        <ele>2357.097656</ele>
        <time>2012-04-29T05:15:32Z</time>
      </trkpt>
      <trkpt lat="-21.22225" lon="55.689">
        <ele>2355.699219</ele>
        <time>2012-04-29T05:15:37Z</time>
      </trkpt>
      <trkpt lat="-21.22226" lon="55.68911">
        <ele>2354.199219</ele>
        <time>2012-04-29T05:15:44Z</time>
      </trkpt>
      <trkpt lat="-21.22225" lon="55.68921">
        <ele>2344.796875</ele>
        <time>2012-04-29T05:15:48Z</time>
      </trkpt>
      <trkpt lat="-21.22234" lon="55.68922">
        <ele>2344.398438</ele>
        <time>2012-04-29T05:16:15Z</time>
      </trkpt>
      <trkpt lat="-21.22243" lon="55.68921">
        <ele>2342</ele>
        <time>2012-04-29T05:16:20Z</time>
      </trkpt>
      <trkpt lat="-21.22252" lon="55.68926">
        <ele>2339.898438</ele>
        <time>2012-04-29T05:16:25Z</time>
      </trkpt>
      <trkpt lat="-21.22243" lon="55.68925">
        <ele>2332.5</ele>
        <time>2012-04-29T05:16:31Z</time>
      </trkpt>
      <trkpt lat="-21.22235" lon="55.68932">
        <ele>2328.398438</ele>
        <time>2012-04-29T05:16:40Z</time>
      </trkpt>
      <trkpt lat="-21.22232" lon="55.68941">
        <ele>2324.097656</ele>
        <time>2012-04-29T05:16:48Z</time>
      </trkpt>
      <trkpt lat="-21.2224" lon="55.68935">
        <ele>2321</ele>
        <time>2012-04-29T05:16:55Z</time>
      </trkpt>
      <trkpt lat="-21.2225" lon="55.68932">
        <ele>2317.398438</ele>
        <time>2012-04-29T05:17:00Z</time>
      </trkpt>
      <trkpt lat="-21.22259" lon="55.68931">
        <ele>2314.796875</ele>
        <time>2012-04-29T05:17:07Z</time>
      </trkpt>
      <trkpt lat="-21.22254" lon="55.68939">
        <ele>2312.796875</ele>
        <time>2012-04-29T05:17:14Z</time>
      </trkpt>
      <trkpt lat="-21.22247" lon="55.68948">
        <ele>2314.296875</ele>
        <time>2012-04-29T05:17:23Z</time>
      </trkpt>
      <trkpt lat="-21.22248" lon="55.68957">
        <ele>2314.5</ele>
        <time>2012-04-29T05:17:29Z</time>
      </trkpt>
      <trkpt lat="-21.22252" lon="55.68966">
        <ele>2311.199219</ele>
        <time>2012-04-29T05:17:38Z</time>
      </trkpt>
      <trkpt lat="-21.22248" lon="55.68974">
        <ele>2309.5</ele>
        <time>2012-04-29T05:17:52Z</time>
      </trkpt>
      <trkpt lat="-21.22242" lon="55.68982">
        <ele>2308.796875</ele>
        <time>2012-04-29T05:18:02Z</time>
      </trkpt>
      <trkpt lat="-21.22238" lon="55.68991">
        <ele>2305</ele>
        <time>2012-04-29T05:18:12Z</time>
      </trkpt>
      <trkpt lat="-21.22246" lon="55.68985">
        <ele>2289.898438</ele>
        <time>2012-04-29T05:18:45Z</time>
      </trkpt>
      <trkpt lat="-21.22254" lon="55.6899">
        <ele>2286.398438</ele>
        <time>2012-04-29T05:19:08Z</time>
      </trkpt>
      <trkpt lat="-21.22246" lon="55.68997">
        <ele>2285.796875</ele>
        <time>2012-04-29T05:19:15Z</time>
      </trkpt>
      <trkpt lat="-21.2224" lon="55.69006">
        <ele>2285.699219</ele>
        <time>2012-04-29T05:19:19Z</time>
      </trkpt>
      <trkpt lat="-21.22237" lon="55.69015">
        <ele>2284.796875</ele>
        <time>2012-04-29T05:19:25Z</time>
      </trkpt>
      <trkpt lat="-21.22232" lon="55.69027">
        <ele>2283.898438</ele>
        <time>2012-04-29T05:19:29Z</time>
      </trkpt>
      <trkpt lat="-21.2223" lon="55.69038">
        <ele>2279.097656</ele>
        <time>2012-04-29T05:19:34Z</time>
      </trkpt>
      <trkpt lat="-21.22225" lon="55.69047">
        <ele>2276.199219</ele>
        <time>2012-04-29T05:19:42Z</time>
      </trkpt>
      <trkpt lat="-21.22217" lon="55.69055">
        <ele>2275.097656</ele>
        <time>2012-04-29T05:19:46Z</time>
      </trkpt>
      <trkpt lat="-21.22203" lon="55.6907">
        <ele>2272.699219</ele>
        <time>2012-04-29T05:19:55Z</time>
      </trkpt>
      <trkpt lat="-21.22201" lon="55.69081">
        <ele>2272.097656</ele>
        <time>2012-04-29T05:20:01Z</time>
      </trkpt>
      <trkpt lat="-21.22197" lon="55.6909">
        <ele>2268.398438</ele>
        <time>2012-04-29T05:20:09Z</time>
      </trkpt>
      <trkpt lat="-21.222" lon="55.691">
        <ele>2267.398438</ele>
        <time>2012-04-29T05:20:20Z</time>
      </trkpt>
      <trkpt lat="-21.22196" lon="55.6911">
        <ele>2267.699219</ele>
        <time>2012-04-29T05:20:27Z</time>
      </trkpt>
      <trkpt lat="-21.22195" lon="55.6912">
        <ele>2269.296875</ele>
        <time>2012-04-29T05:20:34Z</time>
      </trkpt>
      <trkpt lat="-21.22194" lon="55.6913">
        <ele>2270.5</ele>
        <time>2012-04-29T05:20:41Z</time>
      </trkpt>
      <trkpt lat="-21.22188" lon="55.69139">
        <ele>2270.898438</ele>
        <time>2012-04-29T05:20:47Z</time>
      </trkpt>
      <trkpt lat="-21.22183" lon="55.69148">
        <ele>2270.5</ele>
        <time>2012-04-29T05:20:55Z</time>
      </trkpt>
      <trkpt lat="-21.22179" lon="55.69157">
        <ele>2270.296875</ele>
        <time>2012-04-29T05:21:03Z</time>
      </trkpt>
      <trkpt lat="-21.22182" lon="55.6917">
        <ele>2268.199219</ele>
        <time>2012-04-29T05:21:14Z</time>
      </trkpt>
      <trkpt lat="-21.22182" lon="55.69181">
        <ele>2260.796875</ele>
        <time>2012-04-29T05:21:31Z</time>
      </trkpt>
      <trkpt lat="-21.2219" lon="55.69187">
        <ele>2255.097656</ele>
        <time>2012-04-29T05:21:46Z</time>
      </trkpt>
      <trkpt lat="-21.22197" lon="55.69192">
        <ele>2252.597656</ele>
        <time>2012-04-29T05:21:57Z</time>
      </trkpt>
      <trkpt lat="-21.222" lon="55.69202">
        <ele>2252.398438</ele>
        <time>2012-04-29T05:22:02Z</time>
      </trkpt>
      <trkpt lat="-21.22206" lon="55.69211">
        <ele>2254.796875</ele>
        <time>2012-04-29T05:22:07Z</time>
      </trkpt>
      <trkpt lat="-21.22211" lon="55.69224">
        <ele>2254.398438</ele>
        <time>2012-04-29T05:22:16Z</time>
      </trkpt>
      <trkpt lat="-21.22208" lon="55.69233">
        <ele>2254.699219</ele>
        <time>2012-04-29T05:22:22Z</time>
      </trkpt>
      <trkpt lat="-21.22205" lon="55.69242">
        <ele>2255.199219</ele>
        <time>2012-04-29T05:22:26Z</time>
      </trkpt>
      <trkpt lat="-21.2221" lon="55.69253">
        <ele>2254.296875</ele>
        <time>2012-04-29T05:22:32Z</time>
      </trkpt>
      <trkpt lat="-21.22219" lon="55.69257">
        <ele>2251.5</ele>
        <time>2012-04-29T05:22:36Z</time>
      </trkpt>
      <trkpt lat="-21.22228" lon="55.69259">
        <ele>2249</ele>
        <time>2012-04-29T05:22:41Z</time>
      </trkpt>
      <trkpt lat="-21.22234" lon="55.6927">
        <ele>2244.597656</ele>
        <time>2012-04-29T05:22:45Z</time>
      </trkpt>
      <trkpt lat="-21.2224" lon="55.69279">
        <ele>2243.898438</ele>
        <time>2012-04-29T05:22:49Z</time>
      </trkpt>
      <trkpt lat="-21.22244" lon="55.69289">
        <ele>2248.796875</ele>
        <time>2012-04-29T05:22:54Z</time>
      </trkpt>
      <trkpt lat="-21.22248" lon="55.693">
        <ele>2250</ele>
        <time>2012-04-29T05:23:01Z</time>
      </trkpt>
      <trkpt lat="-21.2225" lon="55.69311">
        <ele>2250.199219</ele>
        <time>2012-04-29T05:23:07Z</time>
      </trkpt>
      <trkpt lat="-21.22249" lon="55.69322">
        <ele>2248.898438</ele>
        <time>2012-04-29T05:23:12Z</time>
      </trkpt>
      <trkpt lat="-21.22248" lon="55.69332">
        <ele>2243.898438</ele>
        <time>2012-04-29T05:23:16Z</time>
      </trkpt>
      <trkpt lat="-21.22249" lon="55.69344">
        <ele>2241.699219</ele>
        <time>2012-04-29T05:23:21Z</time>
      </trkpt>
      <trkpt lat="-21.22251" lon="55.69354">
        <ele>2241.597656</ele>
        <time>2012-04-29T05:23:25Z</time>
      </trkpt>
      <trkpt lat="-21.22253" lon="55.69364">
        <ele>2242.699219</ele>
        <time>2012-04-29T05:23:29Z</time>
      </trkpt>
      <trkpt lat="-21.2225" lon="55.69375">
        <ele>2244.597656</ele>
        <time>2012-04-29T05:23:34Z</time>
      </trkpt>
      <trkpt lat="-21.22248" lon="55.69387">
        <ele>2247.597656</ele>
        <time>2012-04-29T05:23:38Z</time>
      </trkpt>
      <trkpt lat="-21.22257" lon="55.69386">
        <ele>2245.296875</ele>
        <time>2012-04-29T05:23:58Z</time>
      </trkpt>
      <trkpt lat="-21.22264" lon="55.69379">
        <ele>2241.199219</ele>
        <time>2012-04-29T05:24:03Z</time>
      </trkpt>
      <trkpt lat="-21.22269" lon="55.6937">
        <ele>2238.796875</ele>
        <time>2012-04-29T05:24:09Z</time>
      </trkpt>
      <trkpt lat="-21.22277" lon="55.69363">
        <ele>2237.5</ele>
        <time>2012-04-29T05:24:15Z</time>
      </trkpt>
      <trkpt lat="-21.22287" lon="55.69361">
        <ele>2234.398438</ele>
        <time>2012-04-29T05:24:21Z</time>
      </trkpt>
      <trkpt lat="-21.22297" lon="55.69361">
        <ele>2230.398438</ele>
        <time>2012-04-29T05:24:25Z</time>
      </trkpt>
      <trkpt lat="-21.22308" lon="55.69362">
        <ele>2229</ele>
        <time>2012-04-29T05:24:30Z</time>
      </trkpt>
      <trkpt lat="-21.22318" lon="55.69363">
        <ele>2224.796875</ele>
        <time>2012-04-29T05:24:34Z</time>
      </trkpt>
      <trkpt lat="-21.22327" lon="55.69359">
        <ele>2221.398438</ele>
        <time>2012-04-29T05:24:40Z</time>
      </trkpt>
      <trkpt lat="-21.22337" lon="55.6936">
        <ele>2220.398438</ele>
        <time>2012-04-29T05:24:44Z</time>
      </trkpt>
      <trkpt lat="-21.22347" lon="55.69357">
        <ele>2219.296875</ele>
        <time>2012-04-29T05:24:48Z</time>
      </trkpt>
      <trkpt lat="-21.22356" lon="55.69354">
        <ele>2220</ele>
        <time>2012-04-29T05:24:53Z</time>
      </trkpt>
      <trkpt lat="-21.22366" lon="55.69353">
        <ele>2221.597656</ele>
        <time>2012-04-29T05:24:59Z</time>
      </trkpt>
      <trkpt lat="-21.22376" lon="55.69351">
        <ele>2223.5</ele>
        <time>2012-04-29T05:25:04Z</time>
      </trkpt>
      <trkpt lat="-21.22383" lon="55.69345">
        <ele>2224.199219</ele>
        <time>2012-04-29T05:25:10Z</time>
      </trkpt>
      <trkpt lat="-21.22393" lon="55.69339">
        <ele>2226.199219</ele>
        <time>2012-04-29T05:25:15Z</time>
      </trkpt>
      <trkpt lat="-21.22411" lon="55.69329">
        <ele>2226.097656</ele>
        <time>2012-04-29T05:25:27Z</time>
      </trkpt>
      <trkpt lat="-21.2242" lon="55.69326">
        <ele>2225.097656</ele>
        <time>2012-04-29T05:25:31Z</time>
      </trkpt>
      <trkpt lat="-21.22428" lon="55.69321">
        <ele>2224.796875</ele>
        <time>2012-04-29T05:25:36Z</time>
      </trkpt>
      <trkpt lat="-21.22435" lon="55.69314">
        <ele>2222.597656</ele>
        <time>2012-04-29T05:25:44Z</time>
      </trkpt>
      <trkpt lat="-21.22443" lon="55.69306">
        <ele>2221</ele>
        <time>2012-04-29T05:25:49Z</time>
      </trkpt>
      <trkpt lat="-21.22451" lon="55.69303">
        <ele>2217.398438</ele>
        <time>2012-04-29T05:25:53Z</time>
      </trkpt>
      <trkpt lat="-21.22461" lon="55.69299">
        <ele>2216.097656</ele>
        <time>2012-04-29T05:25:59Z</time>
      </trkpt>
      <trkpt lat="-21.22467" lon="55.69291">
        <ele>2217.597656</ele>
        <time>2012-04-29T05:26:09Z</time>
      </trkpt>
      <trkpt lat="-21.22478" lon="55.69291">
        <ele>2219.5</ele>
        <time>2012-04-29T05:26:14Z</time>
      </trkpt>
      <trkpt lat="-21.22488" lon="55.69295">
        <ele>2220.199219</ele>
        <time>2012-04-29T05:26:18Z</time>
      </trkpt>
      <trkpt lat="-21.22497" lon="55.69298">
        <ele>2221.199219</ele>
        <time>2012-04-29T05:26:22Z</time>
      </trkpt>
      <trkpt lat="-21.22536" lon="55.69309">
        <ele>2225</ele>
        <time>2012-04-29T05:26:40Z</time>
      </trkpt>
      <trkpt lat="-21.22554" lon="55.69317">
        <ele>2227.796875</ele>
        <time>2012-04-29T05:26:49Z</time>
      </trkpt>
      <trkpt lat="-21.22563" lon="55.69317">
        <ele>2229.898438</ele>
        <time>2012-04-29T05:26:53Z</time>
      </trkpt>
      <trkpt lat="-21.22572" lon="55.6932">
        <ele>2232</ele>
        <time>2012-04-29T05:26:57Z</time>
      </trkpt>
      <trkpt lat="-21.22582" lon="55.69326">
        <ele>2232.699219</ele>
        <time>2012-04-29T05:27:02Z</time>
      </trkpt>
      <trkpt lat="-21.22591" lon="55.69331">
        <ele>2234.699219</ele>
        <time>2012-04-29T05:27:07Z</time>
      </trkpt>
      <trkpt lat="-21.22601" lon="55.69335">
        <ele>2237</ele>
        <time>2012-04-29T05:27:12Z</time>
      </trkpt>
      <trkpt lat="-21.22608" lon="55.69342">
        <ele>2238.597656</ele>
        <time>2012-04-29T05:27:16Z</time>
      </trkpt>
      <trkpt lat="-21.22617" lon="55.69348">
        <ele>2239.597656</ele>
        <time>2012-04-29T05:27:20Z</time>
      </trkpt>
      <trkpt lat="-21.22626" lon="55.69349">
        <ele>2240.699219</ele>
        <time>2012-04-29T05:27:25Z</time>
      </trkpt>
      <trkpt lat="-21.22636" lon="55.69353">
        <ele>2241.199219</ele>
        <time>2012-04-29T05:27:29Z</time>
      </trkpt>
      <trkpt lat="-21.22645" lon="55.69356">
        <ele>2242.597656</ele>
        <time>2012-04-29T05:27:33Z</time>
      </trkpt>
      <trkpt lat="-21.22654" lon="55.69361">
        <ele>2243.398438</ele>
        <time>2012-04-29T05:27:37Z</time>
      </trkpt>
      <trkpt lat="-21.22663" lon="55.69367">
        <ele>2244.296875</ele>
        <time>2012-04-29T05:27:42Z</time>
      </trkpt>
      <trkpt lat="-21.22681" lon="55.6938">
        <ele>2246.597656</ele>
        <time>2012-04-29T05:27:51Z</time>
      </trkpt>
      <trkpt lat="-21.22698" lon="55.69388">
        <ele>2249.398438</ele>
        <time>2012-04-29T05:27:59Z</time>
      </trkpt>
      <trkpt lat="-21.22706" lon="55.69395">
        <ele>2249.398438</ele>
        <time>2012-04-29T05:28:03Z</time>
      </trkpt>
      <trkpt lat="-21.22722" lon="55.69408">
        <ele>2251.296875</ele>
        <time>2012-04-29T05:28:13Z</time>
      </trkpt>
      <trkpt lat="-21.22729" lon="55.69415">
        <ele>2252.5</ele>
        <time>2012-04-29T05:28:18Z</time>
      </trkpt>
      <trkpt lat="-21.22737" lon="55.69421">
        <ele>2253.796875</ele>
        <time>2012-04-29T05:28:22Z</time>
      </trkpt>
      <trkpt lat="-21.22746" lon="55.69425">
        <ele>2255.597656</ele>
        <time>2012-04-29T05:28:27Z</time>
      </trkpt>
      <trkpt lat="-21.22752" lon="55.69433">
        <ele>2256.898438</ele>
        <time>2012-04-29T05:28:34Z</time>
      </trkpt>
      <trkpt lat="-21.2276" lon="55.69439">
        <ele>2256.097656</ele>
        <time>2012-04-29T05:28:41Z</time>
      </trkpt>
      <trkpt lat="-21.22775" lon="55.69455">
        <ele>2253.296875</ele>
        <time>2012-04-29T05:28:53Z</time>
      </trkpt>
      <trkpt lat="-21.22799" lon="55.69475">
        <ele>2249.5</ele>
        <time>2012-04-29T05:29:07Z</time>
      </trkpt>
      <trkpt lat="-21.2283" lon="55.69503">
        <ele>2246.097656</ele>
        <time>2012-04-29T05:29:24Z</time>
      </trkpt>
      <trkpt lat="-21.22839" lon="55.69509">
        <ele>2244.398438</ele>
        <time>2012-04-29T05:29:29Z</time>
      </trkpt>
      <trkpt lat="-21.22847" lon="55.69516">
        <ele>2245.5</ele>
        <time>2012-04-29T05:29:35Z</time>
      </trkpt>
      <trkpt lat="-21.22856" lon="55.6952">
        <ele>2246.398438</ele>
        <time>2012-04-29T05:29:40Z</time>
      </trkpt>
      <trkpt lat="-21.22866" lon="55.69526">
        <ele>2246.398438</ele>
        <time>2012-04-29T05:29:45Z</time>
      </trkpt>
      <trkpt lat="-21.22874" lon="55.69532">
        <ele>2247.398438</ele>
        <time>2012-04-29T05:29:49Z</time>
      </trkpt>
      <trkpt lat="-21.2288" lon="55.69539">
        <ele>2248</ele>
        <time>2012-04-29T05:29:53Z</time>
      </trkpt>
      <trkpt lat="-21.22888" lon="55.69544">
        <ele>2248.296875</ele>
        <time>2012-04-29T05:29:57Z</time>
      </trkpt>
      <trkpt lat="-21.22905" lon="55.69554">
        <ele>2248.296875</ele>
        <time>2012-04-29T05:30:05Z</time>
      </trkpt>
      <trkpt lat="-21.22913" lon="55.69562">
        <ele>2248.597656</ele>
        <time>2012-04-29T05:30:10Z</time>
      </trkpt>
      <trkpt lat="-21.22922" lon="55.69565">
        <ele>2250</ele>
        <time>2012-04-29T05:30:14Z</time>
      </trkpt>
      <trkpt lat="-21.2293" lon="55.6957">
        <ele>2251.597656</ele>
        <time>2012-04-29T05:30:18Z</time>
      </trkpt>
      <trkpt lat="-21.22939" lon="55.69575">
        <ele>2253.5</ele>
        <time>2012-04-29T05:30:24Z</time>
      </trkpt>
      <trkpt lat="-21.22947" lon="55.69581">
        <ele>2256.699219</ele>
        <time>2012-04-29T05:30:29Z</time>
      </trkpt>
      <trkpt lat="-21.22957" lon="55.69588">
        <ele>2259.296875</ele>
        <time>2012-04-29T05:30:35Z</time>
      </trkpt>
      <trkpt lat="-21.22961" lon="55.69599">
        <ele>2260.796875</ele>
        <time>2012-04-29T05:30:40Z</time>
      </trkpt>
      <trkpt lat="-21.22969" lon="55.69606">
        <ele>2261.296875</ele>
        <time>2012-04-29T05:30:45Z</time>
      </trkpt>
      <trkpt lat="-21.22977" lon="55.69613">
        <ele>2258.796875</ele>
        <time>2012-04-29T05:30:51Z</time>
      </trkpt>
      <trkpt lat="-21.22983" lon="55.69621">
        <ele>2257.699219</ele>
        <time>2012-04-29T05:31:04Z</time>
      </trkpt>
      <trkpt lat="-21.22989" lon="55.6963">
        <ele>2256.398438</ele>
        <time>2012-04-29T05:31:08Z</time>
      </trkpt>
      <trkpt lat="-21.22996" lon="55.69638">
        <ele>2256.898438</ele>
        <time>2012-04-29T05:31:14Z</time>
      </trkpt>
      <trkpt lat="-21.23003" lon="55.69646">
        <ele>2258.199219</ele>
        <time>2012-04-29T05:31:19Z</time>
      </trkpt>
      <trkpt lat="-21.23012" lon="55.69652">
        <ele>2257.097656</ele>
        <time>2012-04-29T05:31:24Z</time>
      </trkpt>
      <trkpt lat="-21.23021" lon="55.69657">
        <ele>2256.199219</ele>
        <time>2012-04-29T05:31:30Z</time>
      </trkpt>
      <trkpt lat="-21.2303" lon="55.69662">
        <ele>2256.796875</ele>
        <time>2012-04-29T05:31:35Z</time>
      </trkpt>
      <trkpt lat="-21.23037" lon="55.69671">
        <ele>2257.097656</ele>
        <time>2012-04-29T05:31:40Z</time>
      </trkpt>
      <trkpt lat="-21.23044" lon="55.69678">
        <ele>2257.296875</ele>
        <time>2012-04-29T05:31:44Z</time>
      </trkpt>
      <trkpt lat="-21.23054" lon="55.69682">
        <ele>2255.597656</ele>
        <time>2012-04-29T05:31:48Z</time>
      </trkpt>
      <trkpt lat="-21.23062" lon="55.69687">
        <ele>2253.5</ele>
        <time>2012-04-29T05:31:53Z</time>
      </trkpt>
      <trkpt lat="-21.23066" lon="55.69696">
        <ele>2253.796875</ele>
        <time>2012-04-29T05:31:59Z</time>
      </trkpt>
      <trkpt lat="-21.23069" lon="55.69705">
        <ele>2252.898438</ele>
        <time>2012-04-29T05:32:09Z</time>
      </trkpt>
      <trkpt lat="-21.23075" lon="55.69713">
        <ele>2251.398438</ele>
        <time>2012-04-29T05:32:17Z</time>
      </trkpt>
      <trkpt lat="-21.23084" lon="55.69718">
        <ele>2250.898438</ele>
        <time>2012-04-29T05:32:22Z</time>
      </trkpt>
      <trkpt lat="-21.23092" lon="55.69724">
        <ele>2250.296875</ele>
        <time>2012-04-29T05:32:30Z</time>
      </trkpt>
      <trkpt lat="-21.23102" lon="55.69726">
        <ele>2251.5</ele>
        <time>2012-04-29T05:32:35Z</time>
      </trkpt>
      <trkpt lat="-21.23111" lon="55.69728">
        <ele>2252.199219</ele>
        <time>2012-04-29T05:32:39Z</time>
      </trkpt>
      <trkpt lat="-21.2312" lon="55.69732">
        <ele>2253</ele>
        <time>2012-04-29T05:32:44Z</time>
      </trkpt>
      <trkpt lat="-21.23129" lon="55.69738">
        <ele>2251.398438</ele>
        <time>2012-04-29T05:32:49Z</time>
      </trkpt>
      <trkpt lat="-21.23138" lon="55.69741">
        <ele>2252</ele>
        <time>2012-04-29T05:32:54Z</time>
      </trkpt>
      <trkpt lat="-21.23147" lon="55.69744">
        <ele>2251.898438</ele>
        <time>2012-04-29T05:32:59Z</time>
      </trkpt>
      <trkpt lat="-21.23154" lon="55.6975">
        <ele>2251.796875</ele>
        <time>2012-04-29T05:33:06Z</time>
      </trkpt>
      <trkpt lat="-21.23163" lon="55.69755">
        <ele>2253</ele>
        <time>2012-04-29T05:33:14Z</time>
      </trkpt>
      <trkpt lat="-21.2317" lon="55.69761">
        <ele>2253.796875</ele>
        <time>2012-04-29T05:33:26Z</time>
      </trkpt>
      <trkpt lat="-21.23178" lon="55.69768">
        <ele>2254.097656</ele>
        <time>2012-04-29T05:33:34Z</time>
      </trkpt>
      <trkpt lat="-21.23187" lon="55.69774">
        <ele>2254.597656</ele>
        <time>2012-04-29T05:33:44Z</time>
      </trkpt>
      <trkpt lat="-21.23194" lon="55.69781">
        <ele>2257.097656</ele>
        <time>2012-04-29T05:33:51Z</time>
      </trkpt>
      <trkpt lat="-21.232" lon="55.69788">
        <ele>2256.796875</ele>
        <time>2012-04-29T05:34:01Z</time>
      </trkpt>
      <trkpt lat="-21.23209" lon="55.69791">
        <ele>2257.699219</ele>
        <time>2012-04-29T05:34:09Z</time>
      </trkpt>
      <trkpt lat="-21.23217" lon="55.69797">
        <ele>2258.597656</ele>
        <time>2012-04-29T05:34:17Z</time>
      </trkpt>
      <trkpt lat="-21.23226" lon="55.69801">
        <ele>2260.097656</ele>
        <time>2012-04-29T05:34:33Z</time>
      </trkpt>
      <trkpt lat="-21.23237" lon="55.69802">
        <ele>2260.199219</ele>
        <time>2012-04-29T05:34:38Z</time>
      </trkpt>
      <trkpt lat="-21.23248" lon="55.69804">
        <ele>2260.898438</ele>
        <time>2012-04-29T05:34:43Z</time>
      </trkpt>
      <trkpt lat="-21.23256" lon="55.69811">
        <ele>2260.296875</ele>
        <time>2012-04-29T05:34:48Z</time>
      </trkpt>
      <trkpt lat="-21.23262" lon="55.69819">
        <ele>2261.199219</ele>
        <time>2012-04-29T05:34:51Z</time>
      </trkpt>
      <trkpt lat="-21.23271" lon="55.69825">
        <ele>2263.398438</ele>
        <time>2012-04-29T05:34:55Z</time>
      </trkpt>
      <trkpt lat="-21.2328" lon="55.69828">
        <ele>2264.898438</ele>
        <time>2012-04-29T05:34:59Z</time>
      </trkpt>
      <trkpt lat="-21.23288" lon="55.69836">
        <ele>2266.898438</ele>
        <time>2012-04-29T05:35:05Z</time>
      </trkpt>
      <trkpt lat="-21.23296" lon="55.69842">
        <ele>2267.699219</ele>
        <time>2012-04-29T05:35:12Z</time>
      </trkpt>
      <trkpt lat="-21.2331" lon="55.69858">
        <ele>2272.199219</ele>
        <time>2012-04-29T05:35:29Z</time>
      </trkpt>
      <trkpt lat="-21.23318" lon="55.69864">
        <ele>2273.796875</ele>
        <time>2012-04-29T05:35:39Z</time>
      </trkpt>
      <trkpt lat="-21.23324" lon="55.69873">
        <ele>2274.296875</ele>
        <time>2012-04-29T05:35:49Z</time>
      </trkpt>
      <trkpt lat="-21.23332" lon="55.69878">
        <ele>2273.898438</ele>
        <time>2012-04-29T05:35:57Z</time>
      </trkpt>
      <trkpt lat="-21.2334" lon="55.69886">
        <ele>2273.597656</ele>
        <time>2012-04-29T05:36:03Z</time>
      </trkpt>
      <trkpt lat="-21.23353" lon="55.699">
        <ele>2275.097656</ele>
        <time>2012-04-29T05:36:13Z</time>
      </trkpt>
      <trkpt lat="-21.23356" lon="55.6989">
        <ele>2273</ele>
        <time>2012-04-29T05:36:39Z</time>
      </trkpt>
      <trkpt lat="-21.23354" lon="55.69901">
        <ele>2273</ele>
        <time>2012-04-29T05:36:51Z</time>
      </trkpt>
      <trkpt lat="-21.23356" lon="55.69912">
        <ele>2274.097656</ele>
        <time>2012-04-29T05:36:55Z</time>
      </trkpt>
      <trkpt lat="-21.23359" lon="55.69934">
        <ele>2278.5</ele>
        <time>2012-04-29T05:37:03Z</time>
      </trkpt>
      <trkpt lat="-21.23364" lon="55.69944">
        <ele>2281.597656</ele>
        <time>2012-04-29T05:37:08Z</time>
      </trkpt>
      <trkpt lat="-21.23367" lon="55.69953">
        <ele>2284.597656</ele>
        <time>2012-04-29T05:37:13Z</time>
      </trkpt>
      <trkpt lat="-21.23372" lon="55.69963">
        <ele>2284.5</ele>
        <time>2012-04-29T05:37:20Z</time>
      </trkpt>
      <trkpt lat="-21.23375" lon="55.69972">
        <ele>2284.597656</ele>
        <time>2012-04-29T05:37:26Z</time>
      </trkpt>
      <trkpt lat="-21.2338" lon="55.69982">
        <ele>2286.097656</ele>
        <time>2012-04-29T05:37:35Z</time>
      </trkpt>
      <trkpt lat="-21.23386" lon="55.69991">
        <ele>2287.199219</ele>
        <time>2012-04-29T05:37:43Z</time>
      </trkpt>
      <trkpt lat="-21.23389" lon="55.70001">
        <ele>2286.296875</ele>
        <time>2012-04-29T05:37:51Z</time>
      </trkpt>
      <trkpt lat="-21.23396" lon="55.70009">
        <ele>2285.097656</ele>
        <time>2012-04-29T05:37:58Z</time>
      </trkpt>
      <trkpt lat="-21.23399" lon="55.70019">
        <ele>2287.796875</ele>
        <time>2012-04-29T05:38:09Z</time>
      </trkpt>
      <trkpt lat="-21.23399" lon="55.7003">
        <ele>2291.296875</ele>
        <time>2012-04-29T05:38:14Z</time>
      </trkpt>
      <trkpt lat="-21.23404" lon="55.70038">
        <ele>2293.097656</ele>
        <time>2012-04-29T05:38:22Z</time>
      </trkpt>
      <trkpt lat="-21.23403" lon="55.70049">
        <ele>2295.097656</ele>
        <time>2012-04-29T05:38:28Z</time>
      </trkpt>
      <trkpt lat="-21.23407" lon="55.70058">
        <ele>2296.296875</ele>
        <time>2012-04-29T05:38:38Z</time>
      </trkpt>
      <trkpt lat="-21.23416" lon="55.70075">
        <ele>2300.398438</ele>
        <time>2012-04-29T05:38:59Z</time>
      </trkpt>
      <trkpt lat="-21.23413" lon="55.70085">
        <ele>2303.898438</ele>
        <time>2012-04-29T05:39:12Z</time>
      </trkpt>
      <trkpt lat="-21.23413" lon="55.70096">
        <ele>2302.796875</ele>
        <time>2012-04-29T05:39:21Z</time>
      </trkpt>
      <trkpt lat="-21.23416" lon="55.70105">
        <ele>2302.296875</ele>
        <time>2012-04-29T05:39:29Z</time>
      </trkpt>
      <trkpt lat="-21.23411" lon="55.70114">
        <ele>2301</ele>
        <time>2012-04-29T05:39:36Z</time>
      </trkpt>
      <trkpt lat="-21.23409" lon="55.70124">
        <ele>2301.296875</ele>
        <time>2012-04-29T05:39:42Z</time>
      </trkpt>
      <trkpt lat="-21.23402" lon="55.70131">
        <ele>2301.5</ele>
        <time>2012-04-29T05:39:48Z</time>
      </trkpt>
      <trkpt lat="-21.23394" lon="55.70136">
        <ele>2301.597656</ele>
        <time>2012-04-29T05:39:55Z</time>
      </trkpt>
      <trkpt lat="-21.23391" lon="55.70146">
        <ele>2302.398438</ele>
        <time>2012-04-29T05:40:03Z</time>
      </trkpt>
      <trkpt lat="-21.23385" lon="55.70155">
        <ele>2305.097656</ele>
        <time>2012-04-29T05:40:13Z</time>
      </trkpt>
      <trkpt lat="-21.23387" lon="55.70164">
        <ele>2304.597656</ele>
        <time>2012-04-29T05:40:20Z</time>
      </trkpt>
      <trkpt lat="-21.23386" lon="55.70175">
        <ele>2306.097656</ele>
        <time>2012-04-29T05:40:29Z</time>
      </trkpt>
      <trkpt lat="-21.23391" lon="55.70183">
        <ele>2308.5</ele>
        <time>2012-04-29T05:40:39Z</time>
      </trkpt>
      <trkpt lat="-21.23392" lon="55.70193">
        <ele>2313.5</ele>
        <time>2012-04-29T05:40:50Z</time>
      </trkpt>
      <trkpt lat="-21.23393" lon="55.70203">
        <ele>2317.199219</ele>
        <time>2012-04-29T05:40:56Z</time>
      </trkpt>
      <trkpt lat="-21.23395" lon="55.70213">
        <ele>2319.199219</ele>
        <time>2012-04-29T05:41:02Z</time>
      </trkpt>
      <trkpt lat="-21.23402" lon="55.70221">
        <ele>2322.796875</ele>
        <time>2012-04-29T05:41:08Z</time>
      </trkpt>
      <trkpt lat="-21.2341" lon="55.70227">
        <ele>2324.398438</ele>
        <time>2012-04-29T05:41:15Z</time>
      </trkpt>
      <trkpt lat="-21.23417" lon="55.70234">
        <ele>2325.597656</ele>
        <time>2012-04-29T05:41:22Z</time>
      </trkpt>
      <trkpt lat="-21.23422" lon="55.70242">
        <ele>2327.199219</ele>
        <time>2012-04-29T05:41:28Z</time>
      </trkpt>
      <trkpt lat="-21.23431" lon="55.70261">
        <ele>2327.199219</ele>
        <time>2012-04-29T05:41:49Z</time>
      </trkpt>
      <trkpt lat="-21.23425" lon="55.7027">
        <ele>2328.199219</ele>
        <time>2012-04-29T05:42:05Z</time>
      </trkpt>
      <trkpt lat="-21.23426" lon="55.7028">
        <ele>2328.597656</ele>
        <time>2012-04-29T05:42:13Z</time>
      </trkpt>
      <trkpt lat="-21.23423" lon="55.7029">
        <ele>2329.398438</ele>
        <time>2012-04-29T05:42:22Z</time>
      </trkpt>
      <trkpt lat="-21.23423" lon="55.703">
        <ele>2332.199219</ele>
        <time>2012-04-29T05:42:29Z</time>
      </trkpt>
      <trkpt lat="-21.23424" lon="55.7031">
        <ele>2333.296875</ele>
        <time>2012-04-29T05:42:37Z</time>
      </trkpt>
      <trkpt lat="-21.2343" lon="55.70317">
        <ele>2335.199219</ele>
        <time>2012-04-29T05:42:46Z</time>
      </trkpt>
      <trkpt lat="-21.23433" lon="55.70327">
        <ele>2335.398438</ele>
        <time>2012-04-29T05:42:57Z</time>
      </trkpt>
      <trkpt lat="-21.23436" lon="55.70336">
        <ele>2337.398438</ele>
        <time>2012-04-29T05:43:07Z</time>
      </trkpt>
      <trkpt lat="-21.23441" lon="55.70344">
        <ele>2338.898438</ele>
        <time>2012-04-29T05:43:18Z</time>
      </trkpt>
      <trkpt lat="-21.23447" lon="55.70352">
        <ele>2339</ele>
        <time>2012-04-29T05:43:27Z</time>
      </trkpt>
      <trkpt lat="-21.23448" lon="55.70361">
        <ele>2346.597656</ele>
        <time>2012-04-29T05:43:36Z</time>
      </trkpt>
      <trkpt lat="-21.23451" lon="55.70371">
        <ele>2345.898438</ele>
        <time>2012-04-29T05:43:54Z</time>
      </trkpt>
      <trkpt lat="-21.23458" lon="55.70379">
        <ele>2346.796875</ele>
        <time>2012-04-29T05:44:03Z</time>
      </trkpt>
      <trkpt lat="-21.23465" lon="55.70386">
        <ele>2349.398438</ele>
        <time>2012-04-29T05:44:09Z</time>
      </trkpt>
      <trkpt lat="-21.2347" lon="55.70394">
        <ele>2348.699219</ele>
        <time>2012-04-29T05:44:17Z</time>
      </trkpt>
      <trkpt lat="-21.23477" lon="55.70404">
        <ele>2349.398438</ele>
        <time>2012-04-29T05:44:25Z</time>
      </trkpt>
      <trkpt lat="-21.23479" lon="55.70414">
        <ele>2351.597656</ele>
        <time>2012-04-29T05:44:32Z</time>
      </trkpt>
      <trkpt lat="-21.23482" lon="55.70424">
        <ele>2356</ele>
        <time>2012-04-29T05:44:41Z</time>
      </trkpt>
      <trkpt lat="-21.23485" lon="55.70433">
        <ele>2361.199219</ele>
        <time>2012-04-29T05:44:59Z</time>
      </trkpt>
      <trkpt lat="-21.23491" lon="55.70441">
        <ele>2363.398438</ele>
        <time>2012-04-29T05:45:12Z</time>
      </trkpt>
      <trkpt lat="-21.23496" lon="55.70449">
        <ele>2360</ele>
        <time>2012-04-29T05:45:23Z</time>
      </trkpt>
      <trkpt lat="-21.235" lon="55.70459">
        <ele>2363.398438</ele>
        <time>2012-04-29T05:45:42Z</time>
      </trkpt>
      <trkpt lat="-21.23502" lon="55.70469">
        <ele>2363.796875</ele>
        <time>2012-04-29T05:45:53Z</time>
      </trkpt>
      <trkpt lat="-21.23498" lon="55.70479">
        <ele>2360.699219</ele>
        <time>2012-04-29T05:46:12Z</time>
      </trkpt>
      <trkpt lat="-21.23494" lon="55.70487">
        <ele>2361.097656</ele>
        <time>2012-04-29T05:46:23Z</time>
      </trkpt>
      <trkpt lat="-21.23497" lon="55.70497">
        <ele>2363.296875</ele>
        <time>2012-04-29T05:46:32Z</time>
      </trkpt>
      <trkpt lat="-21.23488" lon="55.70504">
        <ele>2365.597656</ele>
        <time>2012-04-29T05:46:39Z</time>
      </trkpt>
      <trkpt lat="-21.23482" lon="55.70512">
        <ele>2364.398438</ele>
        <time>2012-04-29T05:46:46Z</time>
      </trkpt>
      <trkpt lat="-21.23479" lon="55.70521">
        <ele>2364.796875</ele>
        <time>2012-04-29T05:46:54Z</time>
      </trkpt>
      <trkpt lat="-21.23481" lon="55.70531">
        <ele>2366.097656</ele>
        <time>2012-04-29T05:47:03Z</time>
      </trkpt>
      <trkpt lat="-21.2349" lon="55.70532">
        <ele>2368.597656</ele>
        <time>2012-04-29T05:47:09Z</time>
      </trkpt>
      <trkpt lat="-21.23492" lon="55.70542">
        <ele>2375</ele>
        <time>2012-04-29T05:47:16Z</time>
      </trkpt>
      <trkpt lat="-21.23493" lon="55.70552">
        <ele>2376.898438</ele>
        <time>2012-04-29T05:47:24Z</time>
      </trkpt>
      <trkpt lat="-21.23502" lon="55.70555">
        <ele>2377.398438</ele>
        <time>2012-04-29T05:47:36Z</time>
      </trkpt>
      <trkpt lat="-21.2351" lon="55.70558">
        <ele>2381.796875</ele>
        <time>2012-04-29T05:47:48Z</time>
      </trkpt>
      <trkpt lat="-21.23516" lon="55.70566">
        <ele>2381.296875</ele>
        <time>2012-04-29T05:48:05Z</time>
      </trkpt>
      <trkpt lat="-21.23524" lon="55.70572">
        <ele>2382.699219</ele>
        <time>2012-04-29T05:48:14Z</time>
      </trkpt>
      <trkpt lat="-21.23533" lon="55.70577">
        <ele>2385</ele>
        <time>2012-04-29T05:48:25Z</time>
      </trkpt>
      <trkpt lat="-21.23539" lon="55.70585">
        <ele>2391.699219</ele>
        <time>2012-04-29T05:48:43Z</time>
      </trkpt>
      <trkpt lat="-21.23548" lon="55.7059">
        <ele>2394.597656</ele>
        <time>2012-04-29T05:49:08Z</time>
      </trkpt>
      <trkpt lat="-21.23553" lon="55.70598">
        <ele>2396.097656</ele>
        <time>2012-04-29T05:49:19Z</time>
      </trkpt>
      <trkpt lat="-21.23557" lon="55.70607">
        <ele>2401.296875</ele>
        <time>2012-04-29T05:49:28Z</time>
      </trkpt>
      <trkpt lat="-21.23565" lon="55.70602">
        <ele>2403.5</ele>
        <time>2012-04-29T05:49:42Z</time>
      </trkpt>
      <trkpt lat="-21.2357" lon="55.70612">
        <ele>2405.296875</ele>
        <time>2012-04-29T05:49:55Z</time>
      </trkpt>
      <trkpt lat="-21.23571" lon="55.70622">
        <ele>2409.097656</ele>
        <time>2012-04-29T05:50:07Z</time>
      </trkpt>
      <trkpt lat="-21.23574" lon="55.70632">
        <ele>2410.898438</ele>
        <time>2012-04-29T05:50:22Z</time>
      </trkpt>
      <trkpt lat="-21.23569" lon="55.70641">
        <ele>2415.296875</ele>
        <time>2012-04-29T05:50:36Z</time>
      </trkpt>
      <trkpt lat="-21.23569" lon="55.70651">
        <ele>2418.097656</ele>
        <time>2012-04-29T05:50:42Z</time>
      </trkpt>
      <trkpt lat="-21.23573" lon="55.7066">
        <ele>2419.5</ele>
        <time>2012-04-29T05:50:51Z</time>
      </trkpt>
      <trkpt lat="-21.23576" lon="55.7067">
        <ele>2420</ele>
        <time>2012-04-29T05:51:00Z</time>
      </trkpt>
      <trkpt lat="-21.23578" lon="55.70681">
        <ele>2424.5</ele>
        <time>2012-04-29T05:51:07Z</time>
      </trkpt>
      <trkpt lat="-21.23579" lon="55.707">
        <ele>2429</ele>
        <time>2012-04-29T05:51:27Z</time>
      </trkpt>
      <trkpt lat="-21.23588" lon="55.70705">
        <ele>2427.296875</ele>
        <time>2012-04-29T05:51:45Z</time>
      </trkpt>
      <trkpt lat="-21.23596" lon="55.70702">
        <ele>2426.296875</ele>
        <time>2012-04-29T05:51:59Z</time>
      </trkpt>
      <trkpt lat="-21.23605" lon="55.70697">
        <ele>2428.796875</ele>
        <time>2012-04-29T05:52:06Z</time>
      </trkpt>
      <trkpt lat="-21.23613" lon="55.7069">
        <ele>2432.398438</ele>
        <time>2012-04-29T05:52:15Z</time>
      </trkpt>
      <trkpt lat="-21.2362" lon="55.70683">
        <ele>2433.597656</ele>
        <time>2012-04-29T05:52:25Z</time>
      </trkpt>
      <trkpt lat="-21.23627" lon="55.70676">
        <ele>2436.898438</ele>
        <time>2012-04-29T05:52:30Z</time>
      </trkpt>
      <trkpt lat="-21.23637" lon="55.70676">
        <ele>2438</ele>
        <time>2012-04-29T05:52:43Z</time>
      </trkpt>
      <trkpt lat="-21.23639" lon="55.70685">
        <ele>2441.597656</ele>
        <time>2012-04-29T05:52:52Z</time>
      </trkpt>
      <trkpt lat="-21.23643" lon="55.70694">
        <ele>2445.199219</ele>
        <time>2012-04-29T05:53:03Z</time>
      </trkpt>
      <trkpt lat="-21.2365" lon="55.707">
        <ele>2446</ele>
        <time>2012-04-29T05:53:14Z</time>
      </trkpt>
      <trkpt lat="-21.23659" lon="55.70705">
        <ele>2446.199219</ele>
        <time>2012-04-29T05:53:31Z</time>
      </trkpt>
      <trkpt lat="-21.23668" lon="55.7071">
        <ele>2446.597656</ele>
        <time>2012-04-29T05:53:46Z</time>
      </trkpt>
      <trkpt lat="-21.23677" lon="55.70713">
        <ele>2446.898438</ele>
        <time>2012-04-29T05:53:56Z</time>
      </trkpt>
      <trkpt lat="-21.23683" lon="55.70722">
        <ele>2449</ele>
        <time>2012-04-29T05:54:05Z</time>
      </trkpt>
      <trkpt lat="-21.23685" lon="55.70732">
        <ele>2449.199219</ele>
        <time>2012-04-29T05:54:16Z</time>
      </trkpt>
      <trkpt lat="-21.23681" lon="55.70741">
        <ele>2449.699219</ele>
        <time>2012-04-29T05:54:23Z</time>
      </trkpt>
      <trkpt lat="-21.2368" lon="55.70751">
        <ele>2451.097656</ele>
        <time>2012-04-29T05:54:30Z</time>
      </trkpt>
      <trkpt lat="-21.23679" lon="55.70761">
        <ele>2450.597656</ele>
        <time>2012-04-29T05:54:42Z</time>
      </trkpt>
      <trkpt lat="-21.23672" lon="55.7077">
        <ele>2451.097656</ele>
        <time>2012-04-29T05:54:48Z</time>
      </trkpt>
      <trkpt lat="-21.23674" lon="55.7078">
        <ele>2451</ele>
        <time>2012-04-29T05:54:52Z</time>
      </trkpt>
      <trkpt lat="-21.23672" lon="55.70792">
        <ele>2453.699219</ele>
        <time>2012-04-29T05:54:56Z</time>
      </trkpt>
      <trkpt lat="-21.23672" lon="55.70811">
        <ele>2456.398438</ele>
        <time>2012-04-29T05:55:12Z</time>
      </trkpt>
      <trkpt lat="-21.23679" lon="55.7082">
        <ele>2458.199219</ele>
        <time>2012-04-29T05:55:22Z</time>
      </trkpt>
      <trkpt lat="-21.23681" lon="55.7083">
        <ele>2461.199219</ele>
        <time>2012-04-29T05:55:36Z</time>
      </trkpt>
      <trkpt lat="-21.23685" lon="55.7084">
        <ele>2463.199219</ele>
        <time>2012-04-29T05:55:45Z</time>
      </trkpt>
      <trkpt lat="-21.23687" lon="55.70849">
        <ele>2464.699219</ele>
        <time>2012-04-29T05:56:02Z</time>
      </trkpt>
      <trkpt lat="-21.23696" lon="55.70878">
        <ele>2460.796875</ele>
        <time>2012-04-29T05:56:40Z</time>
      </trkpt>
      <trkpt lat="-21.23694" lon="55.70888">
        <ele>2461.699219</ele>
        <time>2012-04-29T05:56:47Z</time>
      </trkpt>
      <trkpt lat="-21.23696" lon="55.70897">
        <ele>2465.097656</ele>
        <time>2012-04-29T05:56:55Z</time>
      </trkpt>
      <trkpt lat="-21.23694" lon="55.70908">
        <ele>2466.199219</ele>
        <time>2012-04-29T05:57:05Z</time>
      </trkpt>
      <trkpt lat="-21.23695" lon="55.70918">
        <ele>2465</ele>
        <time>2012-04-29T05:57:13Z</time>
      </trkpt>
      <trkpt lat="-21.23699" lon="55.70938">
        <ele>2469.5</ele>
        <time>2012-04-29T05:57:28Z</time>
      </trkpt>
      <trkpt lat="-21.23702" lon="55.70947">
        <ele>2471.296875</ele>
        <time>2012-04-29T05:57:41Z</time>
      </trkpt>
      <trkpt lat="-21.23706" lon="55.70957">
        <ele>2472</ele>
        <time>2012-04-29T05:57:53Z</time>
      </trkpt>
      <trkpt lat="-21.23708" lon="55.70968">
        <ele>2473.296875</ele>
        <time>2012-04-29T05:58:01Z</time>
      </trkpt>
      <trkpt lat="-21.23707" lon="55.70978">
        <ele>2475.796875</ele>
        <time>2012-04-29T05:58:05Z</time>
      </trkpt>
      <trkpt lat="-21.23708" lon="55.70998">
        <ele>2477.898438</ele>
        <time>2012-04-29T05:58:27Z</time>
      </trkpt>
      <trkpt lat="-21.23713" lon="55.71006">
        <ele>2478.796875</ele>
        <time>2012-04-29T05:58:41Z</time>
      </trkpt>
      <trkpt lat="-21.2372" lon="55.71013">
        <ele>2479.699219</ele>
        <time>2012-04-29T05:58:49Z</time>
      </trkpt>
      <trkpt lat="-21.23725" lon="55.71023">
        <ele>2481.796875</ele>
        <time>2012-04-29T05:58:59Z</time>
      </trkpt>
      <trkpt lat="-21.23734" lon="55.7104">
        <ele>2487.296875</ele>
        <time>2012-04-29T05:59:21Z</time>
      </trkpt>
      <trkpt lat="-21.23742" lon="55.71046">
        <ele>2489.699219</ele>
        <time>2012-04-29T05:59:41Z</time>
      </trkpt>
      <trkpt lat="-21.23746" lon="55.71055">
        <ele>2490.398438</ele>
        <time>2012-04-29T05:59:52Z</time>
      </trkpt>
      <trkpt lat="-21.23746" lon="55.71065">
        <ele>2491.898438</ele>
        <time>2012-04-29T06:00:01Z</time>
      </trkpt>
      <trkpt lat="-21.23751" lon="55.71074">
        <ele>2495</ele>
        <time>2012-04-29T06:00:15Z</time>
      </trkpt>
      <trkpt lat="-21.23752" lon="55.71085">
        <ele>2497.199219</ele>
        <time>2012-04-29T06:00:26Z</time>
      </trkpt>
      <trkpt lat="-21.23749" lon="55.71095">
        <ele>2495.398438</ele>
        <time>2012-04-29T06:00:31Z</time>
      </trkpt>
      <trkpt lat="-21.23748" lon="55.71106">
        <ele>2493.898438</ele>
        <time>2012-04-29T06:00:41Z</time>
      </trkpt>
      <trkpt lat="-21.23744" lon="55.71116">
        <ele>2493.5</ele>
        <time>2012-04-29T06:00:45Z</time>
      </trkpt>
      <trkpt lat="-21.23742" lon="55.71125">
        <ele>2494.296875</ele>
        <time>2012-04-29T06:00:49Z</time>
      </trkpt>
      <trkpt lat="-21.23742" lon="55.71137">
        <ele>2494.398438</ele>
        <time>2012-04-29T06:00:54Z</time>
      </trkpt>
      <trkpt lat="-21.23742" lon="55.71149">
        <ele>2493.796875</ele>
        <time>2012-04-29T06:00:59Z</time>
      </trkpt>
      <trkpt lat="-21.2375" lon="55.71155">
        <ele>2494.097656</ele>
        <time>2012-04-29T06:01:04Z</time>
      </trkpt>
      <trkpt lat="-21.23752" lon="55.71166">
        <ele>2493.5</ele>
        <time>2012-04-29T06:01:08Z</time>
      </trkpt>
      <trkpt lat="-21.23759" lon="55.71173">
        <ele>2495.296875</ele>
        <time>2012-04-29T06:01:12Z</time>
      </trkpt>
      <trkpt lat="-21.23765" lon="55.71183">
        <ele>2496.898438</ele>
        <time>2012-04-29T06:01:17Z</time>
      </trkpt>
      <trkpt lat="-21.23767" lon="55.71193">
        <ele>2496.796875</ele>
        <time>2012-04-29T06:01:22Z</time>
      </trkpt>
      <trkpt lat="-21.23765" lon="55.71203">
        <ele>2498.296875</ele>
        <time>2012-04-29T06:01:26Z</time>
      </trkpt>
      <trkpt lat="-21.23766" lon="55.71213">
        <ele>2498.199219</ele>
        <time>2012-04-29T06:01:31Z</time>
      </trkpt>
      <trkpt lat="-21.23766" lon="55.71223">
        <ele>2496.398438</ele>
        <time>2012-04-29T06:01:35Z</time>
      </trkpt>
      <trkpt lat="-21.23767" lon="55.71233">
        <ele>2497.199219</ele>
        <time>2012-04-29T06:01:41Z</time>
      </trkpt>
      <trkpt lat="-21.2377" lon="55.71245">
        <ele>2496.097656</ele>
        <time>2012-04-29T06:01:48Z</time>
      </trkpt>
      <trkpt lat="-21.23767" lon="55.71255">
        <ele>2494.398438</ele>
        <time>2012-04-29T06:01:51Z</time>
      </trkpt>
      <trkpt lat="-21.23765" lon="55.71267">
        <ele>2493.5</ele>
        <time>2012-04-29T06:01:55Z</time>
      </trkpt>
      <trkpt lat="-21.23762" lon="55.71277">
        <ele>2492.898438</ele>
        <time>2012-04-29T06:01:58Z</time>
      </trkpt>
      <trkpt lat="-21.23768" lon="55.71287">
        <ele>2493.097656</ele>
        <time>2012-04-29T06:02:03Z</time>
      </trkpt>
      <trkpt lat="-21.23774" lon="55.71295">
        <ele>2494.296875</ele>
        <time>2012-04-29T06:02:07Z</time>
      </trkpt>
      <trkpt lat="-21.23781" lon="55.71301">
        <ele>2497.796875</ele>
        <time>2012-04-29T06:02:11Z</time>
      </trkpt>
      <trkpt lat="-21.2379" lon="55.71307">
        <ele>2499.699219</ele>
        <time>2012-04-29T06:02:43Z</time>
      </trkpt>
      <trkpt lat="-21.23797" lon="55.71314">
        <ele>2501.097656</ele>
        <time>2012-04-29T06:02:48Z</time>
      </trkpt>
      <trkpt lat="-21.23801" lon="55.71325">
        <ele>2499.296875</ele>
        <time>2012-04-29T06:02:54Z</time>
      </trkpt>
      <trkpt lat="-21.23804" lon="55.71335">
        <ele>2498.296875</ele>
        <time>2012-04-29T06:02:58Z</time>
      </trkpt>
      <trkpt lat="-21.23808" lon="55.71345">
        <ele>2495.898438</ele>
        <time>2012-04-29T06:03:03Z</time>
      </trkpt>
      <trkpt lat="-21.23817" lon="55.71349">
        <ele>2494.699219</ele>
        <time>2012-04-29T06:03:08Z</time>
      </trkpt>
      <trkpt lat="-21.23824" lon="55.71356">
        <ele>2497</ele>
        <time>2012-04-29T06:03:12Z</time>
      </trkpt>
      <trkpt lat="-21.23832" lon="55.71363">
        <ele>2497</ele>
        <time>2012-04-29T06:03:17Z</time>
      </trkpt>
      <trkpt lat="-21.23836" lon="55.71373">
        <ele>2494.597656</ele>
        <time>2012-04-29T06:03:22Z</time>
      </trkpt>
      <trkpt lat="-21.23833" lon="55.71384">
        <ele>2490.097656</ele>
        <time>2012-04-29T06:03:27Z</time>
      </trkpt>
      <trkpt lat="-21.23829" lon="55.71394">
        <ele>2488.699219</ele>
        <time>2012-04-29T06:03:33Z</time>
      </trkpt>
      <trkpt lat="-21.23828" lon="55.71405">
        <ele>2488.199219</ele>
        <time>2012-04-29T06:03:43Z</time>
      </trkpt>
      <trkpt lat="-21.23827" lon="55.71425">
        <ele>2488.699219</ele>
        <time>2012-04-29T06:03:57Z</time>
      </trkpt>
      <trkpt lat="-21.2383" lon="55.71435">
        <ele>2492</ele>
        <time>2012-04-29T06:04:02Z</time>
      </trkpt>
      <trkpt lat="-21.23833" lon="55.71447">
        <ele>2496.5</ele>
        <time>2012-04-29T06:04:07Z</time>
      </trkpt>
      <trkpt lat="-21.23834" lon="55.71457">
        <ele>2498.898438</ele>
        <time>2012-04-29T06:04:11Z</time>
      </trkpt>
      <trkpt lat="-21.23833" lon="55.71467">
        <ele>2499.296875</ele>
        <time>2012-04-29T06:04:15Z</time>
      </trkpt>
      <trkpt lat="-21.2384" lon="55.71474">
        <ele>2500.699219</ele>
        <time>2012-04-29T06:04:26Z</time>
      </trkpt>
      <trkpt lat="-21.2384" lon="55.71484">
        <ele>2499.097656</ele>
        <time>2012-04-29T06:04:39Z</time>
      </trkpt>
      <trkpt lat="-21.2384" lon="55.71495">
        <ele>2496.296875</ele>
        <time>2012-04-29T06:04:44Z</time>
      </trkpt>
      <trkpt lat="-21.23844" lon="55.71505">
        <ele>2495.597656</ele>
        <time>2012-04-29T06:04:48Z</time>
      </trkpt>
      <trkpt lat="-21.2385" lon="55.71514">
        <ele>2494.5</ele>
        <time>2012-04-29T06:04:53Z</time>
      </trkpt>
      <trkpt lat="-21.23851" lon="55.71526">
        <ele>2496.199219</ele>
        <time>2012-04-29T06:04:58Z</time>
      </trkpt>
      <trkpt lat="-21.23849" lon="55.71535">
        <ele>2495.199219</ele>
        <time>2012-04-29T06:05:03Z</time>
      </trkpt>
      <trkpt lat="-21.23846" lon="55.71566">
        <ele>2491.597656</ele>
        <time>2012-04-29T06:05:16Z</time>
      </trkpt>
      <trkpt lat="-21.23843" lon="55.71577">
        <ele>2489.097656</ele>
        <time>2012-04-29T06:05:20Z</time>
      </trkpt>
      <trkpt lat="-21.23843" lon="55.71588">
        <ele>2486.296875</ele>
        <time>2012-04-29T06:05:24Z</time>
      </trkpt>
      <trkpt lat="-21.23842" lon="55.71598">
        <ele>2485.5</ele>
        <time>2012-04-29T06:05:27Z</time>
      </trkpt>
      <trkpt lat="-21.23839" lon="55.71607">
        <ele>2485.097656</ele>
        <time>2012-04-29T06:05:30Z</time>
      </trkpt>
      <trkpt lat="-21.2384" lon="55.71619">
        <ele>2486</ele>
        <time>2012-04-29T06:05:34Z</time>
      </trkpt>
      <trkpt lat="-21.23841" lon="55.71628">
        <ele>2485.699219</ele>
        <time>2012-04-29T06:05:38Z</time>
      </trkpt>
      <trkpt lat="-21.23845" lon="55.71637">
        <ele>2487.898438</ele>
        <time>2012-04-29T06:05:45Z</time>
      </trkpt>
      <trkpt lat="-21.23847" lon="55.71648">
        <ele>2487.597656</ele>
        <time>2012-04-29T06:05:59Z</time>
      </trkpt>
      <trkpt lat="-21.23844" lon="55.71657">
        <ele>2488.296875</ele>
        <time>2012-04-29T06:06:07Z</time>
      </trkpt>
      <trkpt lat="-21.23841" lon="55.71667">
        <ele>2488.097656</ele>
        <time>2012-04-29T06:06:11Z</time>
      </trkpt>
      <trkpt lat="-21.23841" lon="55.71677">
        <ele>2490.796875</ele>
        <time>2012-04-29T06:06:15Z</time>
      </trkpt>
      <trkpt lat="-21.23847" lon="55.71685">
        <ele>2494.597656</ele>
        <time>2012-04-29T06:06:20Z</time>
      </trkpt>
      <trkpt lat="-21.23852" lon="55.71693">
        <ele>2494.597656</ele>
        <time>2012-04-29T06:06:25Z</time>
      </trkpt>
      <trkpt lat="-21.23857" lon="55.71704">
        <ele>2490.597656</ele>
        <time>2012-04-29T06:06:30Z</time>
      </trkpt>
      <trkpt lat="-21.23859" lon="55.71715">
        <ele>2487.796875</ele>
        <time>2012-04-29T06:06:35Z</time>
      </trkpt>
      <trkpt lat="-21.23863" lon="55.71726">
        <ele>2488.398438</ele>
        <time>2012-04-29T06:06:39Z</time>
      </trkpt>
      <trkpt lat="-21.23864" lon="55.71736">
        <ele>2489.5</ele>
        <time>2012-04-29T06:06:45Z</time>
      </trkpt>
      <trkpt lat="-21.23862" lon="55.71747">
        <ele>2488.199219</ele>
        <time>2012-04-29T06:06:50Z</time>
      </trkpt>
      <trkpt lat="-21.23863" lon="55.71758">
        <ele>2484.398438</ele>
        <time>2012-04-29T06:06:55Z</time>
      </trkpt>
      <trkpt lat="-21.23865" lon="55.71768">
        <ele>2483</ele>
        <time>2012-04-29T06:06:59Z</time>
      </trkpt>
      <trkpt lat="-21.23861" lon="55.71776">
        <ele>2480.097656</ele>
        <time>2012-04-29T06:07:18Z</time>
      </trkpt>
      <trkpt lat="-21.23863" lon="55.71787">
        <ele>2480.097656</ele>
        <time>2012-04-29T06:07:26Z</time>
      </trkpt>
      <trkpt lat="-21.23866" lon="55.71797">
        <ele>2482.699219</ele>
        <time>2012-04-29T06:07:31Z</time>
      </trkpt>
      <trkpt lat="-21.23875" lon="55.718">
        <ele>2485.597656</ele>
        <time>2012-04-29T06:07:45Z</time>
      </trkpt>
      <trkpt lat="-21.23875" lon="55.7181">
        <ele>2487.296875</ele>
        <time>2012-04-29T06:07:57Z</time>
      </trkpt>
      <trkpt lat="-21.23871" lon="55.7182">
        <ele>2486.398438</ele>
        <time>2012-04-29T06:08:07Z</time>
      </trkpt>
      <trkpt lat="-21.23876" lon="55.71829">
        <ele>2482.898438</ele>
        <time>2012-04-29T06:08:22Z</time>
      </trkpt>
      <trkpt lat="-21.23881" lon="55.71838">
        <ele>2480.199219</ele>
        <time>2012-04-29T06:08:28Z</time>
      </trkpt>
      <trkpt lat="-21.23888" lon="55.71847">
        <ele>2478.796875</ele>
        <time>2012-04-29T06:08:35Z</time>
      </trkpt>
      <trkpt lat="-21.23894" lon="55.71855">
        <ele>2477.796875</ele>
        <time>2012-04-29T06:08:39Z</time>
      </trkpt>
      <trkpt lat="-21.23898" lon="55.71863">
        <ele>2476.296875</ele>
        <time>2012-04-29T06:08:45Z</time>
      </trkpt>
      <trkpt lat="-21.23909" lon="55.71882">
        <ele>2476.097656</ele>
        <time>2012-04-29T06:08:56Z</time>
      </trkpt>
      <trkpt lat="-21.23914" lon="55.7189">
        <ele>2475.699219</ele>
        <time>2012-04-29T06:09:06Z</time>
      </trkpt>
      <trkpt lat="-21.23918" lon="55.71899">
        <ele>2478.199219</ele>
        <time>2012-04-29T06:09:16Z</time>
      </trkpt>
      <trkpt lat="-21.23926" lon="55.71904">
        <ele>2479.398438</ele>
        <time>2012-04-29T06:09:27Z</time>
      </trkpt>
      <trkpt lat="-21.23935" lon="55.71904">
        <ele>2482.296875</ele>
        <time>2012-04-29T06:09:36Z</time>
      </trkpt>
      <trkpt lat="-21.23944" lon="55.71904">
        <ele>2485.097656</ele>
        <time>2012-04-29T06:09:43Z</time>
      </trkpt>
      <trkpt lat="-21.23953" lon="55.71908">
        <ele>2484.296875</ele>
        <time>2012-04-29T06:09:51Z</time>
      </trkpt>
      <trkpt lat="-21.23961" lon="55.71914">
        <ele>2481</ele>
        <time>2012-04-29T06:10:03Z</time>
      </trkpt>
      <trkpt lat="-21.23965" lon="55.71923">
        <ele>2478.796875</ele>
        <time>2012-04-29T06:10:12Z</time>
      </trkpt>
      <trkpt lat="-21.23972" lon="55.7193">
        <ele>2476.699219</ele>
        <time>2012-04-29T06:10:33Z</time>
      </trkpt>
      <trkpt lat="-21.23977" lon="55.71938">
        <ele>2475.199219</ele>
        <time>2012-04-29T06:10:45Z</time>
      </trkpt>
      <trkpt lat="-21.23971" lon="55.71946">
        <ele>2473.898438</ele>
        <time>2012-04-29T06:10:57Z</time>
      </trkpt>
      <trkpt lat="-21.23968" lon="55.71955">
        <ele>2471.597656</ele>
        <time>2012-04-29T06:11:48Z</time>
      </trkpt>
      <trkpt lat="-21.23972" lon="55.71964">
        <ele>2471.898438</ele>
        <time>2012-04-29T06:12:01Z</time>
      </trkpt>
      <trkpt lat="-21.23978" lon="55.71972">
        <ele>2470.796875</ele>
        <time>2012-04-29T06:12:13Z</time>
      </trkpt>
      <trkpt lat="-21.23985" lon="55.71978">
        <ele>2469.796875</ele>
        <time>2012-04-29T06:12:22Z</time>
      </trkpt>
      <trkpt lat="-21.24" lon="55.71992">
        <ele>2463.597656</ele>
        <time>2012-04-29T06:12:45Z</time>
      </trkpt>
      <trkpt lat="-21.24009" lon="55.71994">
        <ele>2462.597656</ele>
        <time>2012-04-29T06:12:53Z</time>
      </trkpt>
      <trkpt lat="-21.24018" lon="55.72001">
        <ele>2463.296875</ele>
        <time>2012-04-29T06:12:57Z</time>
      </trkpt>
      <trkpt lat="-21.24028" lon="55.72008">
        <ele>2466.898438</ele>
        <time>2012-04-29T06:13:01Z</time>
      </trkpt>
      <trkpt lat="-21.24033" lon="55.72016">
        <ele>2459.097656</ele>
        <time>2012-04-29T06:13:08Z</time>
      </trkpt>
      <trkpt lat="-21.24039" lon="55.72025">
        <ele>2458.597656</ele>
        <time>2012-04-29T06:13:28Z</time>
      </trkpt>
      <trkpt lat="-21.24047" lon="55.72031">
        <ele>2458.296875</ele>
        <time>2012-04-29T06:13:32Z</time>
      </trkpt>
      <trkpt lat="-21.24055" lon="55.72038">
        <ele>2456.097656</ele>
        <time>2012-04-29T06:13:44Z</time>
      </trkpt>
      <trkpt lat="-21.24064" lon="55.72043">
        <ele>2454.097656</ele>
        <time>2012-04-29T06:13:48Z</time>
      </trkpt>
      <trkpt lat="-21.24071" lon="55.7205">
        <ele>2455.699219</ele>
        <time>2012-04-29T06:13:52Z</time>
      </trkpt>
      <trkpt lat="-21.24077" lon="55.7206">
        <ele>2457.398438</ele>
        <time>2012-04-29T06:13:58Z</time>
      </trkpt>
      <trkpt lat="-21.24079" lon="55.7207">
        <ele>2457.796875</ele>
        <time>2012-04-29T06:14:04Z</time>
      </trkpt>
      <trkpt lat="-21.24083" lon="55.72079">
        <ele>2453.796875</ele>
        <time>2012-04-29T06:14:10Z</time>
      </trkpt>
      <trkpt lat="-21.24091" lon="55.72098">
        <ele>2446.964844</ele>
        <time>2012-04-29T06:14:33Z</time>
      </trkpt>
      <trkpt lat="-21.24092" lon="55.72107">
        <ele>2443.597656</ele>
        <time>2012-04-29T06:14:58Z</time>
      </trkpt>
      <trkpt lat="-21.24094" lon="55.72117">
        <ele>2442.796875</ele>
        <time>2012-04-29T06:15:08Z</time>
      </trkpt>
      <trkpt lat="-21.24102" lon="55.72121">
        <ele>2443.097656</ele>
        <time>2012-04-29T06:15:14Z</time>
      </trkpt>
      <trkpt lat="-21.24111" lon="55.72127">
        <ele>2442</ele>
        <time>2012-04-29T06:15:19Z</time>
      </trkpt>
      <trkpt lat="-21.24118" lon="55.72136">
        <ele>2443.199219</ele>
        <time>2012-04-29T06:15:24Z</time>
      </trkpt>
      <trkpt lat="-21.24126" lon="55.72142">
        <ele>2444.699219</ele>
        <time>2012-04-29T06:15:31Z</time>
      </trkpt>
      <trkpt lat="-21.24135" lon="55.72141">
        <ele>2448.597656</ele>
        <time>2012-04-29T06:15:35Z</time>
      </trkpt>
      <trkpt lat="-21.24145" lon="55.7214">
        <ele>2455</ele>
        <time>2012-04-29T06:15:41Z</time>
      </trkpt>
      <trkpt lat="-21.24154" lon="55.72141">
        <ele>2457.597656</ele>
        <time>2012-04-29T06:15:47Z</time>
      </trkpt>
      <trkpt lat="-21.24164" lon="55.72142">
        <ele>2455.398438</ele>
        <time>2012-04-29T06:15:57Z</time>
      </trkpt>
      <trkpt lat="-21.24173" lon="55.72141">
        <ele>2454</ele>
        <time>2012-04-29T06:16:08Z</time>
      </trkpt>
      <trkpt lat="-21.24182" lon="55.7214">
        <ele>2455.597656</ele>
        <time>2012-04-29T06:16:20Z</time>
      </trkpt>
      <trkpt lat="-21.24191" lon="55.72136">
        <ele>2457.097656</ele>
        <time>2012-04-29T06:16:32Z</time>
      </trkpt>
      <trkpt lat="-21.24195" lon="55.72126">
        <ele>2458.597656</ele>
        <time>2012-04-29T06:16:52Z</time>
      </trkpt>
      <trkpt lat="-21.24205" lon="55.72125">
        <ele>2460.699219</ele>
        <time>2012-04-29T06:17:00Z</time>
      </trkpt>
      <trkpt lat="-21.24215" lon="55.72127">
        <ele>2462</ele>
        <time>2012-04-29T06:17:09Z</time>
      </trkpt>
      <trkpt lat="-21.24225" lon="55.72129">
        <ele>2461.699219</ele>
        <time>2012-04-29T06:17:16Z</time>
      </trkpt>
      <trkpt lat="-21.24233" lon="55.72135">
        <ele>2457.699219</ele>
        <time>2012-04-29T06:17:24Z</time>
      </trkpt>
      <trkpt lat="-21.24242" lon="55.72139">
        <ele>2459.199219</ele>
        <time>2012-04-29T06:17:32Z</time>
      </trkpt>
      <trkpt lat="-21.24248" lon="55.72131">
        <ele>2463.5</ele>
        <time>2012-04-29T06:17:37Z</time>
      </trkpt>
      <trkpt lat="-21.24257" lon="55.72128">
        <ele>2467</ele>
        <time>2012-04-29T06:17:43Z</time>
      </trkpt>
      <trkpt lat="-21.24265" lon="55.72123">
        <ele>2466</ele>
        <time>2012-04-29T06:17:51Z</time>
      </trkpt>
      <trkpt lat="-21.24273" lon="55.72127">
        <ele>2463.898438</ele>
        <time>2012-04-29T06:18:01Z</time>
      </trkpt>
      <trkpt lat="-21.24282" lon="55.7213">
        <ele>2466.199219</ele>
        <time>2012-04-29T06:18:07Z</time>
      </trkpt>
      <trkpt lat="-21.24292" lon="55.72134">
        <ele>2468.5</ele>
        <time>2012-04-29T06:18:13Z</time>
      </trkpt>
      <trkpt lat="-21.24302" lon="55.72134">
        <ele>2468.597656</ele>
        <time>2012-04-29T06:18:18Z</time>
      </trkpt>
      <trkpt lat="-21.24313" lon="55.72132">
        <ele>2469.398438</ele>
        <time>2012-04-29T06:18:25Z</time>
      </trkpt>
      <trkpt lat="-21.24322" lon="55.72129">
        <ele>2468.796875</ele>
        <time>2012-04-29T06:18:30Z</time>
      </trkpt>
      <trkpt lat="-21.24331" lon="55.72132">
        <ele>2466.296875</ele>
        <time>2012-04-29T06:18:36Z</time>
      </trkpt>
      <trkpt lat="-21.24341" lon="55.72135">
        <ele>2465.699219</ele>
        <time>2012-04-29T06:18:45Z</time>
      </trkpt>
      <trkpt lat="-21.2435" lon="55.7213">
        <ele>2465</ele>
        <time>2012-04-29T06:18:50Z</time>
      </trkpt>
      <trkpt lat="-21.24366" lon="55.72118">
        <ele>2462.898438</ele>
        <time>2012-04-29T06:19:03Z</time>
      </trkpt>
      <trkpt lat="-21.24375" lon="55.72115">
        <ele>2465.097656</ele>
        <time>2012-04-29T06:19:20Z</time>
      </trkpt>
      <trkpt lat="-21.24383" lon="55.72108">
        <ele>2469</ele>
        <time>2012-04-29T06:19:26Z</time>
      </trkpt>
      <trkpt lat="-21.2439" lon="55.721">
        <ele>2469.597656</ele>
        <time>2012-04-29T06:19:33Z</time>
      </trkpt>
      <trkpt lat="-21.24398" lon="55.72095">
        <ele>2471.097656</ele>
        <time>2012-04-29T06:19:39Z</time>
      </trkpt>
      <trkpt lat="-21.24408" lon="55.72094">
        <ele>2465.5</ele>
        <time>2012-04-29T06:19:48Z</time>
      </trkpt>
      <trkpt lat="-21.24416" lon="55.72087">
        <ele>2466</ele>
        <time>2012-04-29T06:20:10Z</time>
      </trkpt>
      <trkpt lat="-21.24431" lon="55.72075">
        <ele>2470.398438</ele>
        <time>2012-04-29T06:20:27Z</time>
      </trkpt>
      <trkpt lat="-21.2444" lon="55.7207">
        <ele>2470.898438</ele>
        <time>2012-04-29T06:20:39Z</time>
      </trkpt>
      <trkpt lat="-21.24446" lon="55.72063">
        <ele>2473.796875</ele>
        <time>2012-04-29T06:20:49Z</time>
      </trkpt>
      <trkpt lat="-21.24453" lon="55.72055">
        <ele>2474.898438</ele>
        <time>2012-04-29T06:21:01Z</time>
      </trkpt>
      <trkpt lat="-21.24456" lon="55.72045">
        <ele>2480.097656</ele>
        <time>2012-04-29T06:21:10Z</time>
      </trkpt>
      <trkpt lat="-21.24463" lon="55.72038">
        <ele>2485.898438</ele>
        <time>2012-04-29T06:21:20Z</time>
      </trkpt>
      <trkpt lat="-21.24467" lon="55.72029">
        <ele>2487.898438</ele>
        <time>2012-04-29T06:21:30Z</time>
      </trkpt>
      <trkpt lat="-21.24473" lon="55.72021">
        <ele>2484.699219</ele>
        <time>2012-04-29T06:21:41Z</time>
      </trkpt>
      <trkpt lat="-21.24484" lon="55.72018">
        <ele>2482.5</ele>
        <time>2012-04-29T06:21:47Z</time>
      </trkpt>
      <trkpt lat="-21.24495" lon="55.72016">
        <ele>2479.796875</ele>
        <time>2012-04-29T06:21:51Z</time>
      </trkpt>
      <trkpt lat="-21.24506" lon="55.72016">
        <ele>2478.699219</ele>
        <time>2012-04-29T06:21:57Z</time>
      </trkpt>
      <trkpt lat="-21.24515" lon="55.72011">
        <ele>2479.296875</ele>
        <time>2012-04-29T06:22:02Z</time>
      </trkpt>
      <trkpt lat="-21.24522" lon="55.72006">
        <ele>2486.097656</ele>
        <time>2012-04-29T06:22:10Z</time>
      </trkpt>
      <trkpt lat="-21.24523" lon="55.71996">
        <ele>2491.398438</ele>
        <time>2012-04-29T06:22:31Z</time>
      </trkpt>
      <trkpt lat="-21.24522" lon="55.71986">
        <ele>2495.398438</ele>
        <time>2012-04-29T06:22:44Z</time>
      </trkpt>
      <trkpt lat="-21.24525" lon="55.71976">
        <ele>2497.699219</ele>
        <time>2012-04-29T06:23:03Z</time>
      </trkpt>
      <trkpt lat="-21.2453" lon="55.71967">
        <ele>2499.398438</ele>
        <time>2012-04-29T06:23:11Z</time>
      </trkpt>
      <trkpt lat="-21.24537" lon="55.71959">
        <ele>2500.398438</ele>
        <time>2012-04-29T06:23:16Z</time>
      </trkpt>
      <trkpt lat="-21.24542" lon="55.7195">
        <ele>2503.5</ele>
        <time>2012-04-29T06:23:21Z</time>
      </trkpt>
    </trkseg>
  </trk>
</gpx>